5O1361 / F-GIXB 7700 Squawk Report (25th of June, 2019)

Aircraft B733 Reg No. F-GIXB Age 28 years old
Model 737 Jet engines 2 First flight 14-11-90
Registered 04-06-15 Rollout N/A Delivered 14-12-90
Construction No. 24789 Line No. 1953 Series 33A(SF)
ADSHEX 3922E1 Airline name ASL Airlines France Owner N/A
Airfield based Paris-Charles de Gaulle~Val-d'Oise~F First tracked 2017-07-13 00:35:00

Flight history for F-GIXB

Route Flight No Date Playback
???? N/A 2019-07-23 11:04:00
???? N/A 2019-07-23 08:00:00
???? N/A 2019-07-23 06:00:00
???? N/A 2019-07-23 04:32:00
???? N/A 2019-07-21 08:48:00
???? 5O102 2019-07-04 20:37:00
???? N/A 2019-07-02 06:47:00
???? N/A 2019-06-26 14:14:00
???? 5O1361 2019-06-25 05:21:00
???? 5O1363 2019-06-24 13:13:00
???? 5O1362 2019-06-24 11:36:00
???? 5O1361 2019-06-24 08:49:00
???? 5O1363 2019-06-21 18:39:00
???? 5O1362 2019-06-21 14:20:00
???? 5O1361 2019-06-21 12:58:00
???? N/A 2019-06-20 10:20:00
???? N/A 2019-06-19 14:26:00
???? N/A 2019-06-16 12:54:00
???? N/A 2019-06-15 16:10:00
???? N/A 2019-02-02 17:14:00
Time Lat Lon Altitude Heading Speed Vertical Rate
2019-06-25 05:20:05 GMT 53.334328 -2.859535 0 357 2 0
2019-06-25 05:19:25 GMT 53.334675 -2.859702 0 357 2 0
2019-06-25 05:18:45 GMT 53.334850 -2.859697 0 357 2 0
2019-06-25 05:18:32 GMT 53.335018 -2.859879 0 357 0 0
2019-06-25 05:18:26 GMT 53.335014 -2.859879 0 357 0 0
2019-06-25 05:18:17 GMT 53.335014 -2.859697 0 354 2 0
2019-06-25 05:18:10 GMT 53.334850 -2.859697 0 357 3 0
2019-06-25 05:17:57 GMT 53.334846 -2.859879 0 36 5 0
2019-06-25 05:17:44 GMT 53.334503 -2.860040 0 0 6 0
2019-06-25 05:17:38 GMT 53.334332 -2.860212 0 354 6 0
2019-06-25 05:17:16 GMT 53.333817 -2.860040 0 286 4 0
2019-06-25 05:17:05 GMT 53.333988 -2.859879 0 275 2 0
2019-06-25 05:16:54 GMT 53.333992 -2.859879 0 275 2 0
2019-06-25 05:16:43 GMT 53.334160 -2.859525 0 267 10 0
2019-06-25 05:16:39 GMT 53.334167 -2.859353 0 275 11 0
2019-06-25 05:16:34 GMT 53.334167 -2.858849 0 289 10 0
2019-06-25 05:16:27 GMT 53.334167 -2.858323 0 292 9 0
2019-06-25 05:16:17 GMT 53.334167 -2.857819 0 292 7 0
2019-06-25 05:16:06 GMT 53.333988 -2.857465 0 295 6 0
2019-06-25 05:15:54 GMT 53.333992 -2.856789 0 292 12 0
2019-06-25 05:15:35 GMT 53.333481 -2.854385 0 292 26 0
2019-06-25 05:15:20 GMT 53.333641 -2.849054 0 264 86 0
2019-06-25 05:15:15 GMT 53.333817 -2.845636 0 264 120 0
2019-06-25 05:15:09 GMT 53.333954 -2.839966 -100 266 132 -64
2019-06-25 05:15:05 GMT 53.334480 -2.834634 -50 266 136 -448
2019-06-25 05:15:01 GMT 53.334850 -2.826798 25 266 136 -576
2019-06-25 05:14:57 GMT 53.334850 -2.826798 25 265 137 -576
2019-06-25 05:14:51 GMT 53.335178 -2.820578 100 266 142 -576
2019-06-25 05:14:44 GMT 53.335365 -2.813550 200 267 144 -576
2019-06-25 05:14:41 GMT 53.335503 -2.810157 250 267 144 -768
2019-06-25 05:14:38 GMT 53.335690 -2.807411 250 267 144 -768
2019-06-25 05:14:35 GMT 53.336014 -2.801906 325 268 145 -1280
2019-06-25 05:14:32 GMT 53.336197 -2.796413 400 268 146 -960
2019-06-25 05:14:29 GMT 53.336197 -2.796413 425 267 147 -768
2019-06-25 05:14:26 GMT 53.336197 -2.793117 450 267 148 -768
2019-06-25 05:14:23 GMT 53.336388 -2.788831 500 266 149 -704
2019-06-25 05:14:20 GMT 53.336529 -2.785196 550 266 150 -768
2019-06-25 05:14:14 GMT 53.336884 -2.779227 600 269 152 -576
2019-06-25 05:14:11 GMT 53.337040 -2.774775 650 268 154 -576
2019-06-25 05:14:08 GMT 53.337067 -2.772008 675 268 154 -576
2019-06-25 05:14:04 GMT 53.337601 -2.767585 750 259 156 -1024
2019-06-25 05:14:01 GMT 53.337925 -2.764596 800 257 154 -1344
2019-06-25 05:13:58 GMT 53.338436 -2.760719 800 257 154 -1344
2019-06-25 05:13:55 GMT 53.338947 -2.757084 950 260 147 -1088
2019-06-25 05:13:52 GMT 53.339310 -2.753645 950 261 147 -1088
2019-06-25 05:13:48 GMT 53.339630 -2.749564 1,025 263 142 -1216
2019-06-25 05:13:44 GMT 53.339973 -2.745047 1,100 267 141 -768
2019-06-25 05:13:41 GMT 53.340160 -2.741654 1,150 268 141 -512
2019-06-25 05:13:38 GMT 53.340160 -2.738342 1,150 271 143 -128
2019-06-25 05:13:32 GMT 53.340160 -2.730668 1,200 270 147 -576
2019-06-25 05:13:27 GMT 53.340134 -2.726728 1,250 270 149 -704
2019-06-25 05:13:24 GMT 53.340160 -2.719843 1,300 271 149 -1088
2019-06-25 05:13:18 GMT 53.339973 -2.715400 1,425 277 146 -1152
2019-06-25 05:13:14 GMT 53.339645 -2.711765 1,500 276 147 -1088
2019-06-25 05:13:11 GMT 53.339630 -2.708993 1,525 276 147 -1088
2019-06-25 05:13:07 GMT 53.339447 -2.704912 1,575 272 149 -1024
2019-06-25 05:13:02 GMT 53.339630 -2.698870 1,625 268 152 320
2019-06-25 05:12:59 GMT 53.339973 -2.695286 1,575 267 158 320
2019-06-25 05:12:56 GMT 53.340134 -2.692043 1,575 267 158 320
2019-06-25 05:12:52 GMT 53.340500 -2.686393 1,575 265 163 0
2019-06-25 05:12:49 GMT 53.340858 -2.682441 1,575 264 167 -384
2019-06-25 05:12:42 GMT 53.341507 -2.673837 1,675 256 176 -576
2019-06-25 05:12:37 GMT 53.343231 -2.666608 1,750 243 184 -192
2019-06-25 05:12:32 GMT 53.345627 -2.659947 1,725 243 182 -64
2019-06-25 05:12:29 GMT 53.346352 -2.657480 1,750 243 183 -384
2019-06-25 05:12:26 GMT 53.347374 -2.653764 1,750 243 184 -320
2019-06-25 05:12:22 GMT 53.349060 -2.648725 1,750 243 183 -128
2019-06-25 05:12:19 GMT 53.350113 -2.644958 1,775 243 182 -384
2019-06-25 05:12:16 GMT 53.351120 -2.640172 1,775 242 182 -256
2019-06-25 05:12:13 GMT 53.352867 -2.635507 1,800 242 182 0
2019-06-25 05:12:09 GMT 53.354218 -2.631629 1,800 241 180 -256
2019-06-25 05:12:06 GMT 53.355606 -2.627302 1,800 241 182 -192
2019-06-25 05:12:03 GMT 53.356796 -2.624241 1,825 241 181 -512
2019-06-25 05:12:00 GMT 53.357662 -2.621451 1,825 241 180 -384
2019-06-25 05:11:57 GMT 53.359386 -2.616523 1,800 241 180 768
2019-06-25 05:11:54 GMT 53.360409 -2.613211 1,775 240 182 832
2019-06-25 05:11:50 GMT 53.362133 -2.608930 1,750 240 185 512
2019-06-25 05:11:47 GMT 53.363342 -2.605860 1,725 236 187 448
2019-06-25 05:11:44 GMT 53.365036 -2.601876 1,700 234 187 256
2019-06-25 05:11:40 GMT 53.367439 -2.597782 1,725 221 181 -640
2019-06-25 05:11:37 GMT 53.368835 -2.595755 1,750 219 179 -576
2019-06-25 05:11:34 GMT 53.371582 -2.592612 1,775 216 175 -128
2019-06-25 05:11:31 GMT 53.373302 -2.590592 1,750 214 173 512
2019-06-25 05:11:28 GMT 53.375336 -2.588300 1,725 211 172 640
2019-06-25 05:11:24 GMT 53.378426 -2.586311 1,700 202 172 192
2019-06-25 05:11:21 GMT 53.381012 -2.585083 1,700 193 170 -320
2019-06-25 05:11:18 GMT 53.383221 -2.584534 1,725 188 172 -576
2019-06-25 05:11:15 GMT 53.385128 -2.584211 1,750 187 174 -320
2019-06-25 05:11:12 GMT 53.387878 -2.583514 1,775 186 175 -576
2019-06-25 05:11:06 GMT 53.393188 -2.583043 1,875 181 179 -448
2019-06-25 05:11:03 GMT 53.395615 -2.583200 1,875 176 181 128
2019-06-25 05:11:00 GMT 53.397465 -2.583322 1,875 176 181 128
2019-06-25 05:10:57 GMT 53.403656 -2.586069 1,900 165 187 -320
2019-06-25 05:10:53 GMT 53.403656 -2.586069 1,900 160 188 -704
2019-06-25 05:10:50 GMT 53.406235 -2.588143 1,950 153 190 -576
2019-06-25 05:10:47 GMT 53.408314 -2.590188 1,975 149 191 -640
2019-06-25 05:10:43 GMT 53.411728 -2.594029 1,975 143 195 448
2019-06-25 05:10:40 GMT 53.413433 -2.596409 1,925 142 198 1024
2019-06-25 05:10:36 GMT 53.416691 -2.600852 1,925 140 202 832
2019-06-25 05:10:33 GMT 53.417725 -2.602426 1,900 135 210 0
2019-06-25 05:10:30 GMT 53.420509 -2.607395 1,950 129 213 -704
2019-06-25 05:10:27 GMT 53.422394 -2.611529 1,975 125 215 -640
2019-06-25 05:10:23 GMT 53.423908 -2.615635 2,025 121 216 -832
2019-06-25 05:10:19 GMT 53.425644 -2.622672 2,075 116 216 -1280
2019-06-25 05:10:16 GMT 53.426834 -2.627459 2,125 110 218 -768
2019-06-25 05:10:13 GMT 53.427864 -2.632437 2,175 105 222 -256
2019-06-25 05:10:10 GMT 53.428562 -2.638496 2,175 101 223 -256
2019-06-25 05:10:06 GMT 53.429398 -2.644958 2,200 97 226 -192
2019-06-25 05:10:02 GMT 53.429771 -2.650290 2,200 95 229 -64
2019-06-25 05:09:59 GMT 53.429947 -2.658378 2,200 90 233 128
2019-06-25 05:09:56 GMT 53.429947 -2.663714 2,200 88 235 0
2019-06-25 05:09:53 GMT 53.429764 -2.668187 2,200 86 237 -192
2019-06-25 05:09:49 GMT 53.429401 -2.673959 2,225 83 240 -320
2019-06-25 05:09:46 GMT 53.428886 -2.680664 2,250 79 242 -512
2019-06-25 05:09:42 GMT 53.428051 -2.686561 2,300 74 245 -384
2019-06-25 05:09:39 GMT 53.427017 -2.691886 2,300 69 248 -320
2019-06-25 05:09:36 GMT 53.425491 -2.698517 2,325 67 250 -448
2019-06-25 05:09:33 GMT 53.424278 -2.702798 2,350 63 254 -1408
2019-06-25 05:09:30 GMT 53.421707 -2.710563 2,475 50 254 -1536
2019-06-25 05:09:26 GMT 53.419098 -2.716213 2,575 48 255 -1408
2019-06-25 05:09:22 GMT 53.416031 -2.721235 2,675 43 256 -960
2019-06-25 05:09:18 GMT 53.411758 -2.727033 2,675 36 261 -384
2019-06-25 05:09:15 GMT 53.409012 -2.729941 2,700 34 263 -448
2019-06-25 05:09:12 GMT 53.406403 -2.732364 2,750 29 265 -1344
2019-06-25 05:09:08 GMT 53.400909 -2.736161 2,850 22 266 -1984
2019-06-25 05:09:05 GMT 53.397839 -2.737696 3,100 13 265 -2432
2019-06-25 05:09:01 GMT 53.394207 -2.738746 3,100 6 265 -1984
2019-06-25 05:08:58 GMT 53.389435 -2.739205 3,225 0 266 -1408
2019-06-25 05:08:55 GMT 53.381332 -2.738342 3,325 354 269 -704
2019-06-25 05:08:51 GMT 53.381332 -2.738342 3,325 353 270 -512
2019-06-25 05:08:48 GMT 53.377213 -2.737165 3,350 351 273 -192
2019-06-25 05:08:44 GMT 53.372406 -2.735596 3,425 347 279 -1472
2019-06-25 05:08:41 GMT 53.368462 -2.734061 3,450 345 278 -1920
2019-06-25 05:08:37 GMT 53.362831 -2.730991 3,600 340 279 -1728
2019-06-25 05:08:33 GMT 53.355614 -2.725660 3,850 333 279 -2048
2019-06-25 05:08:26 GMT 53.350296 -2.720686 3,875 331 279 -2048
2019-06-25 05:08:23 GMT 53.346680 -2.716605 4,075 323 281 -1408
2019-06-25 05:08:20 GMT 53.343933 -2.712760 4,125 319 283 -1024
2019-06-25 05:08:17 GMT 53.340683 -2.707659 4,175 316 284 -960
2019-06-25 05:08:14 GMT 53.338440 -2.703657 4,200 311 288 -640
2019-06-25 05:08:11 GMT 53.336201 -2.699082 4,250 310 291 -768
2019-06-25 05:08:08 GMT 53.332764 -2.692357 4,275 310 293 -1152
2019-06-25 05:08:05 GMT 53.331390 -2.689453 4,325 310 293 -1536
2019-06-25 05:08:02 GMT 53.328461 -2.683254 4,475 310 294 -1728
2019-06-25 05:07:59 GMT 53.323151 -2.671953 4,575 310 294 -1984
2019-06-25 05:07:56 GMT 53.323151 -2.671953 4,650 310 294 -2432
2019-06-25 05:07:53 GMT 53.321117 -2.667658 4,725 310 292 -2816
2019-06-25 05:07:50 GMT 53.318344 -2.662301 4,875 310 290 -2752
2019-06-25 05:07:47 GMT 53.314926 -2.655622 5,050 311 288 -2432
2019-06-25 05:07:44 GMT 53.312851 -2.651315 5,875 307 281 -1792
2019-06-25 05:07:41 GMT 53.310791 -2.647391 5,275 311 286 -2112
2019-06-25 05:07:38 GMT 53.308224 -2.642373 5,325 311 286 -2048
2019-06-25 05:07:35 GMT 53.305664 -2.637607 5,425 311 286 -2240
2019-06-25 05:07:32 GMT 53.302048 -2.630598 5,600 310 284 -2496
2019-06-25 05:07:29 GMT 53.299484 -2.625262 5,925 309 282 -2368
2019-06-25 05:07:26 GMT 53.297745 -2.621809 5,850 308 281 -2048
2019-06-25 05:07:23 GMT 53.295181 -2.615766 5,900 307 281 -1792
2019-06-25 05:07:19 GMT 53.292068 -2.608782 6,025 305 284 -576
2019-06-25 05:07:16 GMT 53.289505 -2.602269 6,025 303 288 0
2019-06-25 05:07:13 GMT 53.287262 -2.596069 6,025 302 288 128
2019-06-25 05:07:10 GMT 53.285553 -2.590754 6,000 299 294 192
2019-06-25 05:07:07 GMT 53.283829 -2.585554 6,000 295 300 0
2019-06-25 05:07:04 GMT 53.281967 -2.578233 6,000 294 302 -320
2019-06-25 05:07:01 GMT 53.280945 -2.574097 6,025 293 304 -384
2019-06-25 05:06:58 GMT 53.279037 -2.566358 6,100 292 306 -1984
2019-06-25 05:06:55 GMT 53.277313 -2.558845 6,250 292 306 -1984
2019-06-25 05:06:52 GMT 53.275772 -2.552987 6,300 292 306 -1984
2019-06-25 05:06:48 GMT 53.273544 -2.543173 6,450 293 307 -1792
2019-06-25 05:06:44 GMT 53.271683 -2.535822 6,525 293 307 -1792
2019-06-25 05:06:41 GMT 53.270283 -2.529764 6,700 293 308 -1600
2019-06-25 05:06:38 GMT 53.268234 -2.521928 6,725 293 309 -1536
2019-06-25 05:06:35 GMT 53.266514 -2.515223 6,775 293 310 -1536
2019-06-25 05:06:32 GMT 53.264969 -2.509042 6,850 293 310 -1472
2019-06-25 05:06:29 GMT 53.263779 -2.503706 6,950 293 312 -1408
2019-06-25 05:06:26 GMT 53.261719 -2.496320 7,025 293 313 -1536
2019-06-25 05:06:23 GMT 53.259659 -2.488089 7,100 293 314 -1856
2019-06-25 05:06:20 GMT 53.258606 -2.483616 7,450 294 313 -2560
2019-06-25 05:06:17 GMT 53.256042 -2.473807 7,325 293 315 -2112
2019-06-25 05:06:13 GMT 53.253983 -2.465411 7,450 294 314 -2240
2019-06-25 05:06:10 GMT 53.252781 -2.460776 7,825 294 311 -2496
2019-06-25 05:06:07 GMT 53.250732 -2.453090 7,675 294 312 -2496
2019-06-25 05:06:04 GMT 53.247288 -2.440177 7,975 294 309 -2752
2019-06-25 05:06:01 GMT 53.247288 -2.440177 8,025 294 308 -2688
2019-06-25 05:05:58 GMT 53.245560 -2.433315 8,125 294 308 -2688
2019-06-25 05:05:55 GMT 53.243866 -2.427351 8,225 294 307 -2752
2019-06-25 05:05:52 GMT 53.241982 -2.419739 8,425 294 303 -2880
2019-06-25 05:05:49 GMT 53.240433 -2.414089 8,600 294 301 -2880
2019-06-25 05:05:46 GMT 53.238537 -2.407056 8,700 294 300 -2560
2019-06-25 05:05:42 GMT 53.236301 -2.398655 8,875 295 298 -2496
2019-06-25 05:05:39 GMT 53.234390 -2.391802 9,000 296 298 -1472
2019-06-25 05:05:36 GMT 53.230957 -2.380110 9,200 296 300 -1472
2019-06-25 05:05:33 GMT 53.229446 -2.374616 9,200 296 300 -1408
2019-06-25 05:05:27 GMT 53.227551 -2.368281 9,275 296 301 -1472
2019-06-25 05:05:24 GMT 53.225315 -2.361091 9,325 296 301 -1536
2019-06-25 05:05:21 GMT 53.223919 -2.355760 9,475 296 302 -1792
2019-06-25 05:05:18 GMT 53.222031 -2.349583 9,550 297 302 -2112
2019-06-25 05:05:15 GMT 53.220154 -2.342834 9,625 297 301 -2048
2019-06-25 05:05:12 GMT 53.217773 -2.335322 9,750 297 300 -1536
2019-06-25 05:05:09 GMT 53.216537 -2.331377 9,800 297 301 -1344
2019-06-25 05:05:06 GMT 53.214340 -2.324158 9,875 297 301 -896
2019-06-25 05:05:03 GMT 53.212605 -2.318277 9,875 297 301 -192
2019-06-25 05:05:00 GMT 53.210373 -2.310926 9,875 297 302 0
2019-06-25 05:04:57 GMT 53.208481 -2.304775 9,875 297 302 128
2019-06-25 05:04:54 GMT 53.206924 -2.299752 9,875 297 302 128
2019-06-25 05:04:51 GMT 53.204727 -2.292768 9,875 297 302 192
2019-06-25 05:04:48 GMT 53.202644 -2.285560 9,850 297 304 192
2019-06-25 05:04:45 GMT 53.200783 -2.279178 9,850 297 304 0
2019-06-25 05:04:42 GMT 53.199234 -2.274405 9,850 297 304 -192
2019-06-25 05:04:39 GMT 53.197151 -2.268354 9,850 297 305 -256
2019-06-25 05:04:36 GMT 53.195290 -2.261164 9,875 296 305 -64
2019-06-25 05:04:33 GMT 53.193375 -2.254944 9,875 297 306 -128
2019-06-25 05:04:30 GMT 53.191147 -2.247593 9,875 297 308 0
2019-06-25 05:04:26 GMT 53.188751 -2.239014 9,875 297 309 0
2019-06-25 05:04:23 GMT 53.186863 -2.233537 9,875 297 312 192
2019-06-25 05:04:20 GMT 53.184814 -2.226670 9,875 297 312 0
2019-06-25 05:04:17 GMT 53.183258 -2.221357 9,850 297 312 -192
2019-06-25 05:04:13 GMT 53.180695 -2.212725 9,875 297 312 -256
2019-06-25 05:04:10 GMT 53.178452 -2.205505 9,875 297 312 64
2019-06-25 05:04:06 GMT 53.175179 -2.194923 9,850 297 315 704
2019-06-25 05:04:03 GMT 53.174149 -2.191616 9,725 298 322 -64
2019-06-25 05:04:00 GMT 53.171082 -2.181513 9,775 297 319 704
2019-06-25 05:03:57 GMT 53.169708 -2.177176 9,750 297 320 512
2019-06-25 05:03:54 GMT 53.168148 -2.171900 9,725 298 321 192
2019-06-25 05:03:51 GMT 53.165913 -2.164872 9,725 298 321 64
2019-06-25 05:03:48 GMT 53.163849 -2.157950 9,750 298 321 -512
2019-06-25 05:03:45 GMT 53.161819 -2.151139 9,775 298 318 384
2019-06-25 05:03:42 GMT 53.159912 -2.145630 9,775 298 320 128
2019-06-25 05:03:39 GMT 53.157860 -2.138941 9,750 298 318 320
2019-06-25 05:03:36 GMT 53.155254 -2.130701 9,725 298 317 576
2019-06-25 05:03:33 GMT 53.153206 -2.124158 9,700 298 317 640
2019-06-25 05:03:30 GMT 53.151855 -2.119554 9,650 298 316 384
2019-06-25 05:03:27 GMT 53.149433 -2.112122 9,500 298 315 512
2019-06-25 05:03:24 GMT 53.147186 -2.105137 9,600 298 314 704
2019-06-25 05:03:20 GMT 53.144806 -2.097918 9,550 298 314 832
2019-06-25 05:03:17 GMT 53.142563 -2.091012 9,525 299 314 576
2019-06-25 05:03:14 GMT 53.140682 -2.084817 9,425 300 308 896
2019-06-25 05:03:11 GMT 53.138626 -2.078692 9,475 299 312 192
2019-06-25 05:03:08 GMT 53.136726 -2.072700 9,475 299 311 256
2019-06-25 05:03:05 GMT 53.134323 -2.065822 9,450 299 310 320
2019-06-25 05:03:02 GMT 53.129883 -2.052089 9,400 300 308 896
2019-06-25 05:02:59 GMT 53.129883 -2.052089 9,350 300 308 1472
2019-06-25 05:02:56 GMT 53.127640 -2.045890 9,300 300 309 1664
2019-06-25 05:02:53 GMT 53.125763 -2.039690 9,225 300 309 1728
2019-06-25 05:02:50 GMT 53.123878 -2.034409 9,100 300 311 1536
2019-06-25 05:02:47 GMT 53.121456 -2.026978 9,050 300 310 1664
2019-06-25 05:02:44 GMT 53.119217 -2.020621 8,850 300 311 1728
2019-06-25 05:02:40 GMT 53.116661 -2.012922 8,825 300 311 1728
2019-06-25 05:02:37 GMT 53.114941 -2.007913 8,775 300 312 1792
2019-06-25 05:02:33 GMT 53.111847 -1.998492 8,650 300 312 1344
2019-06-25 05:02:30 GMT 53.109447 -1.991676 8,575 300 312 1216
2019-06-25 05:02:27 GMT 53.107224 -1.985622 8,525 301 311 1088
2019-06-25 05:02:24 GMT 53.105850 -1.981541 8,500 301 311 1088
2019-06-25 05:02:21 GMT 53.103439 -1.973985 8,400 301 311 960
2019-06-25 05:02:18 GMT 53.101044 -1.967573 8,325 301 310 896
2019-06-25 05:02:12 GMT 53.097061 -1.956455 8,200 301 295 704
2019-06-25 05:02:09 GMT 53.094830 -1.950466 8,250 301 305 576
2019-06-25 05:02:06 GMT 53.092781 -1.944266 8,250 301 305 576
2019-06-25 05:02:03 GMT 53.090057 -1.936874 8,175 301 302 768
2019-06-25 05:01:59 GMT 53.085239 -1.923628 8,125 301 300 896
2019-06-25 05:01:56 GMT 53.085239 -1.923628 8,075 301 300 896
2019-06-25 05:01:53 GMT 53.083515 -1.918841 8,025 302 298 896
2019-06-25 05:01:50 GMT 53.080769 -1.911464 8,000 301 297 768
2019-06-25 05:01:47 GMT 53.078705 -1.905975 7,975 301 296 704
2019-06-25 05:01:44 GMT 53.076115 -1.898594 7,950 301 295 640
2019-06-25 05:01:41 GMT 53.074768 -1.894836 7,850 301 292 960
2019-06-25 05:01:38 GMT 53.072891 -1.889496 7,825 301 292 832
2019-06-25 05:01:35 GMT 53.070465 -1.882629 7,800 301 291 896
2019-06-25 05:01:31 GMT 53.067719 -1.874924 7,700 301 289 1024
2019-06-25 05:01:27 GMT 53.064789 -1.867523 7,650 301 288 896
2019-06-25 05:01:24 GMT 53.063095 -1.862869 7,425 301 286 768
2019-06-25 05:01:21 GMT 53.061035 -1.857224 7,575 302 286 768
2019-06-25 05:01:18 GMT 53.059124 -1.851903 7,550 302 284 832
2019-06-25 05:01:15 GMT 53.056564 -1.845232 7,450 302 282 832
2019-06-25 05:01:12 GMT 53.055038 -1.840897 7,425 302 282 1024
2019-06-25 05:01:09 GMT 53.052795 -1.834564 7,400 302 281 1216
2019-06-25 05:01:06 GMT 53.050369 -1.827850 7,300 301 280 1216
2019-06-25 05:01:03 GMT 53.049179 -1.824646 7,275 301 280 1216
2019-06-25 05:01:00 GMT 53.047112 -1.819257 7,175 301 279 1280
2019-06-25 05:00:57 GMT 53.044365 -1.811567 7,100 301 278 1472
2019-06-25 05:00:54 GMT 53.043156 -1.808271 7,050 302 279 1920
2019-06-25 05:00:51 GMT 53.040756 -1.801453 6,875 301 281 2048
2019-06-25 05:00:48 GMT 53.038361 -1.794931 6,775 301 282 1792
2019-06-25 05:00:45 GMT 53.037151 -1.791164 6,675 301 281 1728
2019-06-25 05:00:42 GMT 53.035103 -1.785278 6,675 300 282 1664
2019-06-25 05:00:39 GMT 53.032867 -1.778765 6,525 301 283 1664
2019-06-25 05:00:36 GMT 53.030819 -1.773429 6,450 300 282 1728
2019-06-25 05:00:33 GMT 53.029083 -1.767960 6,400 300 283 1536
2019-06-25 05:00:30 GMT 53.026676 -1.761265 6,300 300 282 1472
2019-06-25 05:00:27 GMT 53.025326 -1.757185 6,200 300 282 1344
2019-06-25 05:00:24 GMT 53.023773 -1.752548 6,150 300 281 1024
2019-06-25 05:00:21 GMT 53.021370 -1.745335 6,125 300 281 1024
2019-06-25 05:00:17 GMT 53.018967 -1.738586 6,050 300 280 896
2019-06-25 05:00:14 GMT 53.016899 -1.732073 6,025 300 277 576
2019-06-25 05:00:11 GMT 53.014847 -1.726761 5,950 300 274 576
2019-06-25 05:00:07 GMT 53.011917 -1.718183 5,925 300 274 512
2019-06-25 05:00:04 GMT 53.010406 -1.713715 5,925 301 273 448
2019-06-25 05:00:01 GMT 53.008667 -1.708908 5,900 301 272 256
2019-06-25 04:59:58 GMT 53.006287 -1.701861 5,875 301 272 0
2019-06-25 04:59:55 GMT 53.004227 -1.696396 5,900 301 270 -64
2019-06-25 04:59:52 GMT 53.003166 -1.692915 5,900 301 269 -256
2019-06-25 04:59:49 GMT 53.001297 -1.687775 5,925 301 267 -192
2019-06-25 04:59:46 GMT 52.996838 -1.674944 5,925 301 267 -192
2019-06-25 04:59:43 GMT 52.996838 -1.674944 5,925 301 267 -192
2019-06-25 04:59:40 GMT 52.995625 -1.671334 5,950 301 266 -128
2019-06-25 04:59:37 GMT 52.993378 -1.665649 5,950 301 265 -256
2019-06-25 04:59:34 GMT 52.991867 -1.660995 5,950 301 265 -384
2019-06-25 04:59:31 GMT 52.989258 -1.654129 6,000 302 263 -448
2019-06-25 04:59:28 GMT 52.987747 -1.649704 6,025 302 262 -832
2019-06-25 04:59:25 GMT 52.985321 -1.643524 6,050 302 261 -896
2019-06-25 04:59:22 GMT 52.983948 -1.639709 6,075 303 259 -640
2019-06-25 04:59:19 GMT 52.982071 -1.634750 6,125 303 258 -704
2019-06-25 04:59:16 GMT 52.979645 -1.628036 6,150 303 258 -704
2019-06-25 04:59:12 GMT 52.977612 -1.622916 6,200 303 259 -256
2019-06-25 04:59:06 GMT 52.973831 -1.613312 6,200 302 262 -192
2019-06-25 04:59:03 GMT 52.972118 -1.608320 6,225 302 262 -448
2019-06-25 04:59:00 GMT 52.967972 -1.597137 6,250 302 259 64
2019-06-25 04:58:57 GMT 52.965740 -1.591291 6,250 302 258 256
2019-06-25 04:58:54 GMT 52.965740 -1.591291 6,250 302 257 448
2019-06-25 04:58:51 GMT 52.964401 -1.587524 6,200 301 252 512
2019-06-25 04:58:48 GMT 52.961132 -1.578108 6,175 301 249 320
2019-06-25 04:58:45 GMT 52.961132 -1.578108 6,150 301 248 256
2019-06-25 04:58:42 GMT 52.958897 -1.571751 6,150 301 247 192
2019-06-25 04:58:39 GMT 52.957687 -1.568534 6,150 300 247 64
2019-06-25 04:58:36 GMT 52.953728 -1.556841 6,150 300 246 0
2019-06-25 04:58:33 GMT 52.953728 -1.556841 6,125 300 246 1088
2019-06-25 04:58:29 GMT 52.951859 -1.551361 6,075 300 245 640
2019-06-25 04:58:26 GMT 52.950333 -1.546875 5,975 299 251 2048
2019-06-25 04:58:23 GMT 52.948421 -1.541225 5,925 299 251 2112
2019-06-25 04:58:20 GMT 52.946884 -1.536360 5,825 299 253 2176
2019-06-25 04:58:17 GMT 52.943768 -1.526236 5,700 298 258 1728
2019-06-25 04:58:14 GMT 52.943768 -1.526236 5,650 298 259 1344
2019-06-25 04:58:11 GMT 52.941559 -1.519775 5,600 298 261 832
2019-06-25 04:58:08 GMT 52.940880 -1.517133 5,575 298 259 960
2019-06-25 04:58:05 GMT 52.937248 -1.506383 5,075 298 265 832
2019-06-25 04:58:02 GMT 52.935196 -1.499863 5,375 298 260 1920
2019-06-25 04:57:59 GMT 52.935196 -1.499863 5,325 298 261 2304
2019-06-25 04:57:56 GMT 52.933292 -1.493827 5,150 298 264 2048
2019-06-25 04:57:53 GMT 52.930069 -1.483688 5,050 298 265 1536
2019-06-25 04:57:50 GMT 52.930069 -1.483688 5,000 298 265 1280
2019-06-25 04:57:47 GMT 52.928146 -1.477890 4,925 298 265 832
2019-06-25 04:57:44 GMT 52.926449 -1.472403 4,900 298 264 576
2019-06-25 04:57:41 GMT 52.924911 -1.467381 4,875 298 262 256
2019-06-25 04:57:38 GMT 52.923515 -1.463065 4,875 299 257 384
2019-06-25 04:57:35 GMT 52.921143 -1.455536 4,850 299 256 576
2019-06-25 04:57:32 GMT 52.919769 -1.451797 4,825 300 254 768
2019-06-25 04:57:29 GMT 52.917698 -1.445408 4,775 300 253 960
2019-06-25 04:57:26 GMT 52.916302 -1.441642 4,675 300 250 1216
2019-06-25 04:57:22 GMT 52.914093 -1.435089 4,650 301 248 1408
2019-06-25 04:57:19 GMT 52.912205 -1.429949 4,550 301 246 1472
2019-06-25 04:57:16 GMT 52.910660 -1.425705 4,475 301 245 1536
2019-06-25 04:57:13 GMT 52.908920 -1.420670 4,350 301 242 1408
2019-06-25 04:57:10 GMT 52.907410 -1.416059 4,125 300 230 576
2019-06-25 04:57:06 GMT 52.904804 -1.408840 4,250 300 236 1152
2019-06-25 04:57:02 GMT 52.902756 -1.402876 4,200 300 236 1152
2019-06-25 04:56:59 GMT 52.901047 -1.398239 4,125 300 227 448
2019-06-25 04:56:56 GMT 52.899673 -1.393890 4,125 299 222 256
2019-06-25 04:56:53 GMT 52.897934 -1.388397 4,100 300 220 128
2019-06-25 04:56:49 GMT 52.895397 -1.380668 4,100 299 197 960
2019-06-25 04:56:43 GMT 52.893494 -1.375198 3,650 297 196 1152
2019-06-25 04:56:39 GMT 52.892120 -1.370926 4,000 298 196 1088
2019-06-25 04:56:36 GMT 52.890743 -1.366307 3,900 298 195 1088
2019-06-25 04:56:33 GMT 52.889347 -1.361677 3,875 297 195 1152
2019-06-25 04:56:29 GMT 52.888000 -1.357498 3,775 292 210 2112
2019-06-25 04:56:25 GMT 52.886627 -1.352692 3,725 296 195 768
2019-06-25 04:56:22 GMT 52.885071 -1.347427 3,675 296 193 832
2019-06-25 04:56:18 GMT 52.883698 -1.342239 3,600 295 192 1536
2019-06-25 04:56:15 GMT 52.882507 -1.337967 3,525 295 194 1920
2019-06-25 04:56:12 GMT 52.881664 -1.335231 3,425 294 196 1920
2019-06-25 04:56:09 GMT 52.880966 -1.332328 3,350 294 197 1984
2019-06-25 04:56:04 GMT 52.879074 -1.324921 3,125 293 204 2496
2019-06-25 04:56:01 GMT 52.877884 -1.319962 3,025 292 210 2176
2019-06-25 04:55:58 GMT 52.876686 -1.315142 2,850 292 217 2048
2019-06-25 04:55:52 GMT 52.874084 -1.304474 2,625 292 218 2560
2019-06-25 04:55:49 GMT 52.873398 -1.301575 2,550 292 219 2560
2019-06-25 04:55:41 GMT 52.870308 -1.288696 2,275 292 226 1728
2019-06-25 04:55:38 GMT 52.869282 -1.284537 2,225 292 226 1728
2019-06-25 04:55:32 GMT 52.866898 -1.274414 2,000 292 226 512
2019-06-25 04:55:29 GMT 52.865662 -1.269302 2,000 292 225 640
2019-06-25 04:55:22 GMT 52.863098 -1.258316 1,900 292 220 896
2019-06-25 04:55:19 GMT 52.861542 -1.252136 1,775 292 217 1664
2019-06-25 04:55:14 GMT 52.860168 -1.245956 1,575 290 216 2048
2019-06-25 04:55:11 GMT 52.858795 -1.239090 1,500 290 214 1216
2019-06-25 04:55:08 GMT 52.858109 -1.235962 1,475 289 212 1024
2019-06-25 04:55:02 GMT 52.856064 -1.226545 1,250 289 209 3392
2019-06-25 04:54:58 GMT 52.855038 -1.221601 925 290 223 2112
2019-06-25 04:54:51 GMT 52.852619 -1.210066 875 290 229 -320
2019-06-25 04:54:47 GMT 52.851269 -1.203709 1,000 288 216 -3008
2019-06-25 04:54:41 GMT 52.849548 -1.194077 1,250 286 195 -1728
2019-06-25 04:54:37 GMT 52.848495 -1.188126 1,550 287 174 -1408
2019-06-25 04:54:32 GMT 52.847309 -1.181893 1,525 288 173 -1344
2019-06-25 04:54:29 GMT 52.846798 -1.178676 1,650 294 165 -1216
2019-06-25 04:54:25 GMT 52.845428 -1.173172 1,675 295 164 -1216
2019-06-25 04:54:22 GMT 52.844563 -1.169887 1,750 300 158 -768
2019-06-25 04:54:19 GMT 52.843353 -1.166827 1,775 303 155 -512
2019-06-25 04:54:15 GMT 52.841820 -1.162824 1,800 304 152 -320
2019-06-25 04:54:11 GMT 52.840118 -1.158752 1,800 302 157 -64
2019-06-25 04:54:05 GMT 52.837875 -1.151733 1,800 291 179 -384
2019-06-25 04:54:02 GMT 52.837006 -1.147766 1,800 291 181 -384
2019-06-25 04:53:59 GMT 52.835999 -1.144148 1,825 290 185 -576
2019-06-25 04:53:54 GMT 52.834602 -1.137948 1,900 291 188 -1600
2019-06-25 04:53:50 GMT 52.833572 -1.132507 2,025 287 188 -2048
2019-06-25 04:53:47 GMT 52.833065 -1.128374 2,125 281 190 -1920
2019-06-25 04:53:43 GMT 52.832565 -1.123352 2,225 274 192 -1408
2019-06-25 04:53:40 GMT 52.832741 -1.113386 2,350 267 195 -1152
2019-06-25 04:53:34 GMT 52.832554 -1.108285 2,450 261 196 -1280
2019-06-25 04:53:30 GMT 52.832703 -1.102448 2,525 256 199 -896
2019-06-25 04:53:27 GMT 52.834415 -1.092669 2,625 254 201 -704
2019-06-25 04:53:23 GMT 52.834415 -1.092669 2,600 250 203 -384
2019-06-25 04:53:18 GMT 52.836502 -1.085281 2,625 242 209 -256
2019-06-25 04:53:15 GMT 52.838058 -1.081161 2,650 233 215 -384
2019-06-25 04:53:10 GMT 52.841309 -1.074142 2,700 232 217 -448
2019-06-25 04:53:07 GMT 52.843029 -1.070853 2,700 232 219 -192
2019-06-25 04:53:01 GMT 52.846611 -1.063320 2,675 233 226 384
2019-06-25 04:52:58 GMT 52.849045 -1.057816 2,675 232 232 -448
2019-06-25 04:52:55 GMT 52.850922 -1.054382 2,700 229 234 -1152
2019-06-25 04:52:52 GMT 52.852802 -1.051078 2,775 222 235 -1728
2019-06-25 04:52:47 GMT 52.858112 -1.045271 2,900 213 234 -1920
2019-06-25 04:52:39 GMT 52.865513 -1.041190 3,150 196 229 -960
2019-06-25 04:52:36 GMT 52.868088 -1.040115 3,175 195 228 0
2019-06-25 04:52:32 GMT 52.872726 -1.038051 3,100 195 227 832
2019-06-25 04:52:29 GMT 52.876499 -1.036482 3,100 195 228 832
2019-06-25 04:52:25 GMT 52.880268 -1.034991 3,050 194 235 896
2019-06-25 04:52:21 GMT 52.884041 -1.033421 3,000 194 240 1472
2019-06-25 04:52:18 GMT 52.887314 -1.032257 2,925 192 247 1024
2019-06-25 04:52:15 GMT 52.890930 -1.031189 2,875 188 253 512
2019-06-25 04:52:11 GMT 52.895538 -1.030675 2,875 180 258 192
2019-06-25 04:52:08 GMT 52.903454 -1.031381 3,175 106 260 0
2019-06-25 04:52:04 GMT 52.903454 -1.031381 2,850 171 256 0
2019-06-25 04:52:00 GMT 52.908096 -1.032715 2,850 167 251 -448
2019-06-25 04:51:56 GMT 52.913406 -1.035156 2,925 160 246 -960
2019-06-25 04:51:53 GMT 52.915787 -1.036682 2,950 156 243 -960
2019-06-25 04:51:50 GMT 52.918907 -1.039071 2,975 151 240 -1152
2019-06-25 04:51:47 GMT 52.921284 -1.041661 3,050 145 240 -960
2019-06-25 04:51:44 GMT 52.924393 -1.045761 3,100 138 240 -704
2019-06-25 04:51:41 GMT 52.926773 -1.049728 3,125 134 240 -576
2019-06-25 04:51:38 GMT 52.930920 -1.059317 3,175 119 244 -128
2019-06-25 04:51:31 GMT 52.932816 -1.066589 3,175 112 248 64
2019-06-25 04:51:27 GMT 52.934326 -1.072922 3,150 108 253 448
2019-06-25 04:51:24 GMT 52.935699 -1.079636 3,150 106 259 0
2019-06-25 04:51:20 GMT 52.937622 -1.092148 3,125 104 263 -128
2019-06-25 04:51:17 GMT 52.937622 -1.092148 3,150 102 265 -320
2019-06-25 04:51:13 GMT 52.938461 -1.100909 3,175 96 267 -192
2019-06-25 04:51:08 GMT 52.938644 -1.109855 3,175 93 267 -128
2019-06-25 04:51:04 GMT 52.938461 -1.118408 3,200 84 266 0
2019-06-25 04:51:00 GMT 52.937622 -1.127014 3,225 72 266 -512
2019-06-25 04:50:57 GMT 52.936039 -1.134338 3,225 68 267 -448
2019-06-25 04:50:53 GMT 52.934177 -1.140695 3,250 50 266 -448
2019-06-25 04:50:50 GMT 52.931580 -1.147232 3,250 53 267 -256
2019-06-25 04:50:47 GMT 52.930069 -1.150513 3,275 51 266 -448
2019-06-25 04:50:44 GMT 52.927322 -1.155319 3,275 48 265 -448
2019-06-25 04:50:41 GMT 52.922169 -1.162510 3,325 37 262 -448
2019-06-25 04:50:38 GMT 52.922169 -1.162510 3,350 31 262 -192
2019-06-25 04:50:35 GMT 52.919403 -1.164932 3,350 31 262 -192
2019-06-25 04:50:32 GMT 52.914440 -1.169024 3,325 24 265 1088
2019-06-25 04:50:27 GMT 52.909286 -1.172333 3,225 18 269 1472
2019-06-25 04:50:24 GMT 52.906200 -1.173654 3,150 13 273 1088
2019-06-25 04:50:20 GMT 52.900360 -1.175232 3,100 4 280 256
2019-06-25 04:50:17 GMT 52.896561 -1.175919 3,075 2 282 64
2019-06-25 04:50:14 GMT 52.893166 -1.175380 3,100 359 284 -128
2019-06-25 04:50:11 GMT 52.889023 -1.174360 3,150 344 286 -1024
2019-06-25 04:50:08 GMT 52.886124 -1.173325 3,225 340 285 -896
2019-06-25 04:50:05 GMT 52.882504 -1.170907 3,300 336 285 -768
2019-06-25 04:50:01 GMT 52.876171 -1.165414 3,300 327 282 -960
2019-06-25 04:49:57 GMT 52.872894 -1.161652 3,350 325 282 -1088
2019-06-25 04:49:54 GMT 52.866024 -1.152387 3,500 322 276 -1216
2019-06-25 04:49:51 GMT 52.866024 -1.152387 3,500 322 275 -1024
2019-06-25 04:49:48 GMT 52.863605 -1.149327 3,550 321 272 -960
2019-06-25 04:49:45 GMT 52.860855 -1.145717 3,650 321 271 -640
2019-06-25 04:49:41 GMT 52.856762 -1.139675 3,625 321 267 -256
2019-06-25 04:49:38 GMT 52.853851 -1.136093 3,650 321 265 -384
2019-06-25 04:49:35 GMT 52.851242 -1.132507 3,650 319 278 -704
2019-06-25 04:49:32 GMT 52.848705 -1.128688 3,675 320 260 -320
2019-06-25 04:49:28 GMT 52.845261 -1.124058 3,700 320 263 -192
2019-06-25 04:49:25 GMT 52.841995 -1.119461 3,700 320 266 -256
2019-06-25 04:49:22 GMT 52.839767 -1.116132 3,725 320 268 -448
2019-06-25 04:49:19 GMT 52.836502 -1.111526 3,750 319 271 -576
2019-06-25 04:49:15 GMT 52.832367 -1.105539 3,800 319 274 -384
2019-06-25 04:49:12 GMT 52.829296 -1.100909 3,800 319 276 -384
2019-06-25 04:49:09 GMT 52.826550 -1.097142 3,825 319 279 -832
2019-06-25 04:49:04 GMT 52.822083 -1.090622 3,900 320 280 -1152
2019-06-25 04:49:01 GMT 52.818970 -1.086273 3,950 320 281 -1024
2019-06-25 04:48:58 GMT 52.816589 -1.083069 4,000 321 285 -384
2019-06-25 04:48:55 GMT 52.812973 -1.078033 4,025 322 290 -640
2019-06-25 04:48:52 GMT 52.810226 -1.074600 4,050 323 291 -640
2019-06-25 04:48:49 GMT 52.805923 -1.069107 4,100 323 293 -768
2019-06-25 04:48:46 GMT 52.802490 -1.064987 4,150 323 296 -768
2019-06-25 04:48:43 GMT 52.800293 -1.062241 4,175 323 297 -704
2019-06-25 04:48:40 GMT 52.796677 -1.057663 4,225 323 299 -1024
2019-06-25 04:48:37 GMT 52.793591 -1.053824 4,275 324 301 -1152
2019-06-25 04:48:33 GMT 52.788933 -1.048017 4,450 325 304 -1408
2019-06-25 04:48:29 GMT 52.784325 -1.042524 4,450 325 304 -1408
2019-06-25 04:48:25 GMT 52.779510 -1.037064 4,550 325 305 -1472
2019-06-25 04:48:22 GMT 52.775200 -1.031695 4,625 325 305 -1536
2019-06-25 04:48:18 GMT 52.770733 -1.026202 4,850 324 301 -1792
2019-06-25 04:48:14 GMT 52.767475 -1.021964 4,925 323 299 -1856
2019-06-25 04:48:11 GMT 52.763351 -1.016769 5,000 323 298 -1856
2019-06-25 04:48:07 GMT 52.758209 -1.010428 5,125 323 296 -1856
2019-06-25 04:48:04 GMT 52.755981 -1.007538 5,200 323 296 -1856
2019-06-25 04:48:01 GMT 52.752579 -1.003209 5,300 324 291 -1728
2019-06-25 04:47:58 GMT 52.750668 -1.000776 5,350 324 289 -1792
2019-06-25 04:47:55 GMT 52.746014 -0.995675 5,500 328 281 -2048
2019-06-25 04:47:52 GMT 52.743778 -0.993399 5,550 329 281 -2048
2019-06-25 04:47:49 GMT 52.739502 -0.989456 5,625 332 278 -1856
2019-06-25 04:47:46 GMT 52.736237 -0.987279 5,750 341 273 -1024
2019-06-25 04:47:43 GMT 52.732281 -0.984846 5,775 343 275 -704
2019-06-25 04:47:40 GMT 52.725586 -0.981750 5,800 348 281 -192
2019-06-25 04:47:34 GMT 52.720966 -0.980216 5,825 349 285 -384
2019-06-25 04:47:30 GMT 52.716869 -0.979196 5,850 349 287 0
2019-06-25 04:47:27 GMT 52.712036 -0.977325 5,850 349 292 256
2019-06-25 04:47:24 GMT 52.707413 -0.975723 5,825 348 307 -1664
2019-06-25 04:47:21 GMT 52.704849 -0.974884 5,825 349 300 0
2019-06-25 04:47:18 GMT 52.700180 -0.973358 5,825 349 303 -64
2019-06-25 04:47:15 GMT 52.695736 -0.972133 5,850 349 307 -1536
2019-06-25 04:47:12 GMT 52.690758 -0.970564 5,925 349 307 -1600
2019-06-25 04:47:09 GMT 52.688522 -0.969543 6,025 347 308 -1856
2019-06-25 04:47:06 GMT 52.683540 -0.967503 6,125 347 307 -1856
2019-06-25 04:47:03 GMT 52.679443 -0.965424 6,225 345 307 -2048
2019-06-25 04:47:00 GMT 52.674774 -0.962906 6,375 344 307 -2240
2019-06-25 04:46:57 GMT 52.666222 -0.959263 6,425 346 307 -2048
2019-06-25 04:46:54 GMT 52.666222 -0.959263 6,500 348 307 -1728
2019-06-25 04:46:51 GMT 52.663803 -0.958557 6,550 350 308 -1408
2019-06-25 04:46:48 GMT 52.658844 -0.957565 6,650 355 310 -1408
2019-06-25 04:46:45 GMT 52.652817 -0.956517 6,750 356 310 -1536
2019-06-25 04:46:42 GMT 52.650951 -0.956360 6,800 356 311 -1600
2019-06-25 04:46:39 GMT 52.646484 -0.955811 7,225 353 311 -1792
2019-06-25 04:46:36 GMT 52.642181 -0.955124 6,975 354 312 -1792
2019-06-25 04:46:33 GMT 52.635639 -0.953613 7,100 349 311 -1664
2019-06-25 04:46:29 GMT 52.631378 -0.952072 7,225 348 317 -1216
2019-06-25 04:46:26 GMT 52.626572 -0.950012 7,300 346 313 -1536
2019-06-25 04:46:22 GMT 52.621078 -0.947800 7,400 345 313 -1664
2019-06-25 04:46:19 GMT 52.617966 -0.946426 7,400 345 314 -1600
2019-06-25 04:46:16 GMT 52.612839 -0.944366 7,575 346 314 -1408
2019-06-25 04:46:13 GMT 52.607849 -0.942078 7,625 347 315 -1344
2019-06-25 04:46:10 GMT 52.603546 -0.940552 7,675 348 316 -1344
2019-06-25 04:46:07 GMT 52.600113 -0.939178 7,725 348 316 -1280
2019-06-25 04:46:04 GMT 52.595322 -0.937448 7,875 347 319 -1536
2019-06-25 04:46:00 GMT 52.591042 -0.935721 7,875 347 318 -1600
2019-06-25 04:45:57 GMT 52.581757 -0.932159 8,075 349 320 -1536
2019-06-25 04:45:54 GMT 52.581757 -0.932159 8,100 351 321 -1280
2019-06-25 04:45:51 GMT 52.576767 -0.930634 8,125 353 322 -960
2019-06-25 04:45:48 GMT 52.571442 -0.929600 8,200 356 324 -960
2019-06-25 04:45:45 GMT 52.568024 -0.929260 8,200 356 323 -960
2019-06-25 04:45:42 GMT 52.559433 -0.928580 8,325 358 326 -1344
2019-06-25 04:45:39 GMT 52.559433 -0.928580 8,375 358 327 -1344
2019-06-25 04:45:36 GMT 52.554638 -0.928188 8,475 358 328 -1408
2019-06-25 04:45:33 GMT 52.550167 -0.927874 8,475 358 328 -1408
2019-06-25 04:45:30 GMT 52.546051 -0.927353 8,550 357 329 -1664
2019-06-25 04:45:27 GMT 52.540878 -0.926819 8,725 357 330 -1856
2019-06-25 04:45:24 GMT 52.536758 -0.926514 8,800 357 330 -1600
2019-06-25 04:45:21 GMT 52.531265 -0.925980 8,875 350 345 -1152
2019-06-25 04:45:18 GMT 52.526138 -0.925293 8,975 355 333 -1344
2019-06-25 04:45:15 GMT 52.522888 -0.924735 9,000 355 334 -1344
2019-06-25 04:45:12 GMT 52.516708 -0.923538 9,125 354 336 -1088
2019-06-25 04:45:09 GMT 52.513622 -0.923087 9,150 353 336 -1088
2019-06-25 04:45:06 GMT 52.507919 -0.921860 9,225 352 338 -896
2019-06-25 04:45:03 GMT 52.504852 -0.921021 9,200 352 340 -704
2019-06-25 04:45:00 GMT 52.500031 -0.919791 9,275 351 342 -640
2019-06-25 04:44:57 GMT 52.494553 -0.918274 9,300 350 344 -960
2019-06-25 04:44:54 GMT 52.486809 -0.915632 9,400 350 346 -1408
2019-06-25 04:44:51 GMT 52.484436 -0.914841 9,450 350 348 -1536
2019-06-25 04:44:48 GMT 52.479767 -0.913467 9,525 349 349 -1536
2019-06-25 04:44:45 GMT 52.474800 -0.911708 9,600 352 355 -1536
2019-06-25 04:44:42 GMT 52.470005 -0.910139 9,625 349 350 -1664
2019-06-25 04:44:39 GMT 52.465027 -0.908813 9,750 351 354 -1216
2019-06-25 04:44:36 GMT 52.461578 -0.907785 9,850 353 356 -1536
2019-06-25 04:44:33 GMT 52.456783 -0.906764 9,875 355 356 -1536
2019-06-25 04:44:29 GMT 52.449417 -0.906219 10,000 0 359 -1984
2019-06-25 04:44:26 GMT 52.444401 -0.906764 10,075 3 358 -2048
2019-06-25 04:44:23 GMT 52.440125 -0.907593 10,200 6 360 -1600
2019-06-25 04:44:19 GMT 52.433090 -0.909668 10,350 12 363 -1088
2019-06-25 04:44:16 GMT 52.428478 -0.911237 10,350 14 364 -1152
2019-06-25 04:44:13 GMT 52.422638 -0.913925 10,450 28 364 -3200
2019-06-25 04:44:10 GMT 52.418839 -0.916214 10,500 20 366 -2112
2019-06-25 04:44:07 GMT 52.413528 -0.920334 10,675 26 364 -2752
2019-06-25 04:44:04 GMT 52.409393 -0.924107 10,900 31 362 -3584
2019-06-25 04:44:01 GMT 52.405437 -0.928188 11,100 35 360 -3264
2019-06-25 04:43:58 GMT 52.401855 -0.932159 11,175 38 358 -3392
2019-06-25 04:43:55 GMT 52.397049 -0.939178 11,400 42 355 -3328
2019-06-25 04:43:52 GMT 52.394119 -0.943451 11,400 42 355 -3328
2019-06-25 04:43:49 GMT 52.390865 -0.949140 11,750 51 350 -3008
2019-06-25 04:43:46 GMT 52.386909 -0.956831 11,850 53 350 -2752
2019-06-25 04:43:43 GMT 52.384674 -0.961696 11,925 54 349 -2432
2019-06-25 04:43:40 GMT 52.381786 -0.968209 12,000 56 348 -2048
2019-06-25 04:43:37 GMT 52.379013 -0.976639 12,200 62 348 -2240
2019-06-25 04:43:34 GMT 52.377319 -0.982285 12,350 69 345 -2176
2019-06-25 04:43:31 GMT 52.375397 -0.988770 12,400 69 345 -2176
2019-06-25 04:43:28 GMT 52.373688 -0.996538 12,600 79 344 -1728
2019-06-25 04:43:25 GMT 52.372650 -1.003723 12,600 86 342 -2048
2019-06-25 04:43:22 GMT 52.371639 -1.011448 12,700 81 343 -1792
2019-06-25 04:43:19 GMT 52.371128 -1.019688 12,775 84 343 -1920
2019-06-25 04:43:16 GMT 52.370590 -1.027756 12,900 86 342 -2240
2019-06-25 04:43:13 GMT 52.370430 -1.043073 13,075 88 342 -2624
2019-06-25 04:43:10 GMT 52.370430 -1.043073 13,150 88 341 -2752
2019-06-25 04:43:07 GMT 52.370243 -1.048880 13,250 88 341 -2816
2019-06-25 04:43:04 GMT 52.370087 -1.057816 13,375 88 340 -2880
2019-06-25 04:43:01 GMT 52.369904 -1.065369 13,550 88 339 -2816
2019-06-25 04:42:58 GMT 52.369766 -1.076202 13,775 88 338 -2752
2019-06-25 04:42:55 GMT 52.369766 -1.083755 13,850 88 337 -2752
2019-06-25 04:42:52 GMT 52.369591 -1.088510 14,000 89 335 -2880
2019-06-25 04:42:49 GMT 52.369591 -1.096122 14,225 92 333 -2368
2019-06-25 04:42:46 GMT 52.369766 -1.104507 14,300 93 333 -2304
2019-06-25 04:42:43 GMT 52.370106 -1.110639 14,350 94 332 -2112
2019-06-25 04:42:40 GMT 52.371128 -1.127119 14,500 96 332 -2240
2019-06-25 04:42:37 GMT 52.371128 -1.127119 14,675 98 331 -2368
2019-06-25 04:42:34 GMT 52.372147 -1.135559 14,750 101 330 -2304
2019-06-25 04:42:31 GMT 52.372990 -1.141715 14,875 104 329 -1984
2019-06-25 04:42:28 GMT 52.374573 -1.149445 14,925 112 327 -1536
2019-06-25 04:42:25 GMT 52.376083 -1.155319 15,000 115 328 -1408
2019-06-25 04:42:22 GMT 52.377823 -1.161118 15,050 117 328 -1408
2019-06-25 04:42:19 GMT 52.379883 -1.166840 15,125 136 328 -1344
2019-06-25 04:42:16 GMT 52.383324 -1.175380 15,225 123 327 -1664
2019-06-25 04:42:13 GMT 52.385048 -1.179539 15,300 124 328 -1792
2019-06-25 04:42:10 GMT 52.387756 -1.185379 15,350 126 328 -1728
2019-06-25 04:42:07 GMT 52.392075 -1.193586 15,500 134 328 -1472
2019-06-25 04:42:04 GMT 52.394310 -1.197039 16,175 181 363 192
2019-06-25 04:42:01 GMT 52.397736 -1.201859 15,575 138 329 -1280
2019-06-25 04:41:58 GMT 52.402176 -1.207809 15,675 143 330 -1216
2019-06-25 04:41:55 GMT 52.405975 -1.212158 15,750 146 332 -1344
2019-06-25 04:41:52 GMT 52.408356 -1.214676 15,800 148 332 -1088
2019-06-25 04:41:49 GMT 52.418152 -1.223984 15,900 152 335 -1088
2019-06-25 04:41:45 GMT 52.418152 -1.223984 15,900 153 335 -1152
2019-06-25 04:41:42 GMT 52.422272 -1.226883 15,975 158 337 -1344
2019-06-25 04:41:39 GMT 52.428295 -1.230312 16,075 163 339 -1216
2019-06-25 04:41:36 GMT 52.431198 -1.231537 16,100 166 340 -1024
2019-06-25 04:41:33 GMT 52.435837 -1.233215 16,150 169 341 -896
2019-06-25 04:41:30 GMT 52.442211 -1.234628 16,175 174 345 -64
2019-06-25 04:41:27 GMT 52.445797 -1.235099 16,175 177 350 128
2019-06-25 04:41:24 GMT 52.450424 -1.235275 16,175 178 352 192
2019-06-25 04:41:21 GMT 52.459854 -1.235504 16,150 181 359 128
2019-06-25 04:41:18 GMT 52.459854 -1.235504 16,175 181 362 192
2019-06-25 04:41:15 GMT 52.466217 -1.235275 16,150 181 362 64
2019-06-25 04:41:12 GMT 52.469650 -1.235123 16,150 181 364 512
2019-06-25 04:41:09 GMT 52.475327 -1.235123 16,125 181 365 448
2019-06-25 04:41:05 GMT 52.482193 -1.234970 16,100 181 365 192
2019-06-25 04:41:02 GMT 52.486996 -1.234942 16,100 181 365 128
2019-06-25 04:40:58 GMT 52.492493 -1.234970 16,100 179 365 0
2019-06-25 04:40:55 GMT 52.498821 -1.234942 16,125 181 362 -64
2019-06-25 04:40:52 GMT 52.504166 -1.234970 16,100 181 360 192
2019-06-25 04:40:49 GMT 52.507599 -1.234818 16,025 182 351 576
2019-06-25 04:40:46 GMT 52.514648 -1.234628 16,025 182 352 704
2019-06-25 04:40:43 GMT 52.517532 -1.234436 16,025 182 350 576
2019-06-25 04:40:38 GMT 52.525772 -1.234079 15,975 182 345 512
2019-06-25 04:40:33 GMT 52.534195 -1.233749 15,950 182 337 704
2019-06-25 04:40:28 GMT 52.541927 -1.233608 15,850 182 332 1280
2019-06-25 04:40:23 GMT 52.549118 -1.233063 15,750 183 328 1408
2019-06-25 04:40:13 GMT 52.564911 -1.228638 14,875 188 322 1984
2019-06-25 04:40:10 GMT 52.568527 -1.227417 15,100 192 324 3136
2019-06-25 04:40:07 GMT 52.573517 -1.225891 14,975 191 324 2688
2019-06-25 04:40:04 GMT 52.579193 -1.224670 14,825 186 321 1536
2019-06-25 04:40:01 GMT 52.582443 -1.224289 14,725 179 317 896
2019-06-25 04:39:58 GMT 52.585876 -1.224289 14,725 173 311 832
2019-06-25 04:39:55 GMT 52.591694 -1.224662 14,675 168 308 768
2019-06-25 04:39:52 GMT 52.596359 -1.226730 14,650 166 306 768
2019-06-25 04:39:49 GMT 52.599792 -1.228428 14,625 162 303 832
2019-06-25 04:39:46 GMT 52.603363 -1.231155 14,550 155 299 1024
2019-06-25 04:39:43 GMT 52.606449 -1.233765 14,500 152 297 1088
2019-06-25 04:39:40 GMT 52.609570 -1.236825 14,475 147 294 1088
2019-06-25 04:39:37 GMT 52.614212 -1.243210 14,325 134 288 1664
2019-06-25 04:39:34 GMT 52.616085 -1.245928 14,300 133 287 1856
2019-06-25 04:39:31 GMT 52.618835 -1.251068 14,225 130 287 2304
2019-06-25 04:39:28 GMT 52.622276 -1.258327 14,025 125 287 2432
2019-06-25 04:39:25 GMT 52.624138 -1.262957 13,875 124 285 2432
2019-06-25 04:39:22 GMT 52.626389 -1.268463 13,800 124 285 2496
2019-06-25 04:39:19 GMT 52.627911 -1.272060 13,725 124 284 2560
2019-06-25 04:39:16 GMT 52.630146 -1.277553 13,650 124 282 2560
2019-06-25 04:39:13 GMT 52.632565 -1.283517 13,275 124 280 2624
2019-06-25 04:39:10 GMT 52.634445 -1.288376 13,275 124 280 2624
2019-06-25 04:39:07 GMT 52.637009 -1.294708 13,200 124 280 2560
2019-06-25 04:39:04 GMT 52.638756 -1.299133 13,100 124 279 2560
2019-06-25 04:39:01 GMT 52.640991 -1.305019 12,850 124 277 2496
2019-06-25 04:38:58 GMT 52.643188 -1.310349 12,775 124 276 2560
2019-06-25 04:38:55 GMT 52.645111 -1.314926 12,675 124 274 2624
2019-06-25 04:38:52 GMT 52.650238 -1.327133 12,375 124 273 2880
2019-06-25 04:38:49 GMT 52.650238 -1.327133 12,300 124 271 2944
2019-06-25 04:38:46 GMT 52.651611 -1.330566 12,200 124 271 3072
2019-06-25 04:38:43 GMT 52.653168 -1.334381 12,075 124 271 3136
2019-06-25 04:38:40 GMT 52.656097 -1.341248 11,875 124 271 3264
2019-06-25 04:38:37 GMT 52.657974 -1.345520 11,750 124 271 3328
2019-06-25 04:38:34 GMT 52.660538 -1.352234 10,200 124 271 3520
2019-06-25 04:38:31 GMT 52.662277 -1.355972 11,425 124 271 3520
2019-06-25 04:38:28 GMT 52.664684 -1.361834 11,025 124 272 3648
2019-06-25 04:38:25 GMT 52.667061 -1.367641 11,025 124 272 3648
2019-06-25 04:38:22 GMT 52.668781 -1.371800 10,800 125 273 3712
2019-06-25 04:38:19 GMT 52.671524 -1.377945 10,425 125 273 3840
2019-06-25 04:38:16 GMT 52.672928 -1.381531 10,300 125 274 3840
2019-06-25 04:38:13 GMT 52.675114 -1.386396 10,300 125 274 3840
2019-06-25 04:38:08 GMT 52.679585 -1.395970 9,875 125 276 3968
2019-06-25 04:38:05 GMT 52.681320 -1.400299 9,775 125 276 3840
2019-06-25 04:38:02 GMT 52.683212 -1.404524 9,525 125 276 3456
2019-06-25 04:37:59 GMT 52.685440 -1.409912 9,425 125 277 3136
2019-06-25 04:37:56 GMT 52.688194 -1.416059 9,225 125 278 2496
2019-06-25 04:37:53 GMT 52.690941 -1.422573 9,050 126 278 1536
2019-06-25 04:37:49 GMT 52.692810 -1.427078 9,000 126 277 1216
2019-06-25 04:37:46 GMT 52.695557 -1.432724 8,950 126 275 1088
2019-06-25 04:37:43 GMT 52.697800 -1.437836 8,900 126 275 1024
2019-06-25 04:37:40 GMT 52.699696 -1.442348 8,825 126 274 1088
2019-06-25 04:37:37 GMT 52.703110 -1.449738 8,725 128 272 1792
2019-06-25 04:37:34 GMT 52.704674 -1.452942 8,650 131 271 2240
2019-06-25 04:37:31 GMT 52.706722 -1.456081 8,575 134 270 2624
2019-06-25 04:37:28 GMT 52.710167 -1.460868 8,400 140 268 3264
2019-06-25 04:37:25 GMT 52.713226 -1.464844 8,150 142 266 3520
2019-06-25 04:37:22 GMT 52.715801 -1.468087 8,025 142 266 3584
2019-06-25 04:37:19 GMT 52.718399 -1.471176 7,950 143 265 3520
2019-06-25 04:37:16 GMT 52.723015 -1.476798 7,650 146 265 3776
2019-06-25 04:37:13 GMT 52.724899 -1.478882 7,550 145 264 3776
2019-06-25 04:37:10 GMT 52.727859 -1.481977 7,350 148 265 3840
2019-06-25 04:37:07 GMT 52.730759 -1.485062 7,200 151 265 3840
2019-06-25 04:37:03 GMT 52.736237 -1.488883 6,950 160 267 3584
2019-06-25 04:37:00 GMT 52.738632 -1.489716 6,725 166 268 3456
2019-06-25 04:36:57 GMT 52.742752 -1.491089 6,525 173 267 3136
2019-06-25 04:36:54 GMT 52.745872 -1.491629 6,325 178 268 2752
2019-06-25 04:36:51 GMT 52.750671 -1.491776 6,225 184 267 2240
2019-06-25 04:36:48 GMT 52.754791 -1.491089 6,225 185 267 2176
2019-06-25 04:36:45 GMT 52.757172 -1.490021 6,050 196 263 1856
2019-06-25 04:36:42 GMT 52.760632 -1.488334 5,900 207 258 1856
2019-06-25 04:36:39 GMT 52.763535 -1.485901 5,850 210 257 1920
2019-06-25 04:36:35 GMT 52.767986 -1.481114 5,650 220 250 2496
2019-06-25 04:36:32 GMT 52.770733 -1.478210 5,450 220 249 2496
2019-06-25 04:36:29 GMT 52.772968 -1.475307 5,475 221 247 2560
2019-06-25 04:36:26 GMT 52.776226 -1.472168 5,300 222 245 2816
2019-06-25 04:36:23 GMT 52.778641 -1.468430 5,250 223 243 2944
2019-06-25 04:36:19 GMT 52.781754 -1.464310 4,950 222 242 3520
2019-06-25 04:36:11 GMT 52.788280 -1.454668 4,625 222 240 3264
2019-06-25 04:36:08 GMT 52.790844 -1.451059 4,350 222 238 2688
2019-06-25 04:36:04 GMT 52.795303 -1.445389 4,150 221 234 2240
2019-06-25 04:36:01 GMT 52.796860 -1.443176 4,050 221 229 1856
2019-06-25 04:35:58 GMT 52.799271 -1.440072 4,000 220 227 1408
2019-06-25 04:35:53 GMT 52.803551 -1.434108 3,850 220 213 1344
2019-06-25 04:35:49 GMT 52.807159 -1.429291 3,775 220 208 1664
2019-06-25 04:35:45 GMT 52.809185 -1.426339 3,650 220 203 2240
2019-06-25 04:35:42 GMT 52.811600 -1.423111 3,550 220 201 2496
2019-06-25 04:35:39 GMT 52.814163 -1.419678 3,325 221 198 3392
2019-06-25 04:35:36 GMT 52.816399 -1.416216 3,125 223 199 3456
2019-06-25 04:35:33 GMT 52.818283 -1.413345 3,025 224 200 3328
2019-06-25 04:35:30 GMT 52.819656 -1.411285 2,925 225 201 3136
2019-06-25 04:35:27 GMT 52.821716 -1.407623 2,750 229 200 3072
2019-06-25 04:35:24 GMT 52.823456 -1.404724 2,600 230 200 3072
2019-06-25 04:35:21 GMT 52.825523 -1.400443 2,400 236 199 2944
2019-06-25 04:35:18 GMT 52.826889 -1.396637 2,300 242 198 3008
2019-06-25 04:35:14 GMT 52.828270 -1.391497 2,100 259 194 2560
2019-06-25 04:35:10 GMT 52.829109 -1.385847 1,925 261 193 2816
2019-06-25 04:35:07 GMT 52.829269 -1.381912 1,800 265 190 3200
2019-06-25 04:35:03 GMT 52.829636 -1.375732 1,575 268 190 2944
2019-06-25 04:35:00 GMT 52.829636 -1.370544 1,475 269 189 2944
2019-06-25 04:34:57 GMT 52.829807 -1.367327 1,300 269 186 2944
2019-06-25 04:34:53 GMT 52.829819 -1.360931 1,075 268 184 2880
2019-06-25 04:34:47 GMT 52.830139 -1.352539 775 267 180 2688

Making use of Plane Finder data

You are free to use the raw flight data, aircraft information and images provided in this report for your own purposes provided the data is correctly attributed to Plane Finder. We ask that you please credit Plane Finder and link to planefinder.net in close proximity to the content.

Optionally one of the following logos (no smaller then 150x24px) can be used and must link to planefinder.net

Embedding the Plane Finder map

You are welcome to embed the Plane Finder playback map on your website to offer visitors a more interactive experience. We suggest using the following HTML code:

<iframe src="//planefinder.net/data/report/5O1361-F-GIXB-7700-squawk-2019-06-25/map" width="800" height="600" seamless="seamless"></iframe>

Where our data comes from

Plane Finder has a global network of data feeds and antenna radars that receive data broadcast directly from aircraft. The primary technologies used are ADS-B and MLAT. We also show feeds from the FAA and a FLARM glider feed.

Click here to find out more about the Plane Finder network.

How we collect our data